sensor_id;sensor_type;location;lat;lon;timestamp;temperature;humidity
56240;DHT22;42154;51.992;5.896;2023-01-09T00:00:14;8.90;99.90
56240;DHT22;42154;51.992;5.896;2023-01-09T00:02:41;8.90;99.90
56240;DHT22;42154;51.992;5.896;2023-01-09T00:05:10;8.90;99.90
56240;DHT22;42154;51.992;5.896;2023-01-09T00:07:36;8.90;99.90
56240;DHT22;42154;51.992;5.896;2023-01-09T00:10:03;8.80;99.90
56240;DHT22;42154;51.992;5.896;2023-01-09T00:12:29;8.80;99.90
56240;DHT22;42154;51.992;5.896;2023-01-09T00:14:54;8.80;99.90
56240;DHT22;42154;51.992;5.896;2023-01-09T00:17:20;8.80;99.90
56240;DHT22;42154;51.992;5.896;2023-01-09T00:19:46;8.80;99.90
56240;DHT22;42154;51.992;5.896;2023-01-09T00:22:12;8.80;99.90
56240;DHT22;42154;51.992;5.896;2023-01-09T00:24:37;8.70;99.90
56240;DHT22;42154;51.992;5.896;2023-01-09T00:27:03;8.70;99.90
56240;DHT22;42154;51.992;5.896;2023-01-09T00:29:29;8.70;99.90
56240;DHT22;42154;51.992;5.896;2023-01-09T00:31:55;8.60;99.90
56240;DHT22;42154;51.992;5.896;2023-01-09T00:34:21;8.60;99.90
56240;DHT22;42154;51.992;5.896;2023-01-09T00:36:46;8.60;99.90
56240;DHT22;42154;51.992;5.896;2023-01-09T00:39:13;8.50;99.90
56240;DHT22;42154;51.992;5.896;2023-01-09T00:41:46;8.50;99.90
56240;DHT22;42154;51.992;5.896;2023-01-09T00:44:20;8.40;99.90
56240;DHT22;42154;51.992;5.896;2023-01-09T00:46:50;8.40;99.90
56240;DHT22;42154;51.992;5.896;2023-01-09T00:49:19;8.30;99.90
56240;DHT22;42154;51.992;5.896;2023-01-09T00:51:46;8.20;99.90
56240;DHT22;42154;51.992;5.896;2023-01-09T00:54:14;8.20;99.90
56240;DHT22;42154;51.992;5.896;2023-01-09T00:56:40;8.10;99.90
56240;DHT22;42154;51.992;5.896;2023-01-09T00:59:07;8.10;99.90
56240;DHT22;42154;51.992;5.896;2023-01-09T01:01:32;8.00;99.90
56240;DHT22;42154;51.992;5.896;2023-01-09T01:03:58;8.00;99.90
56240;DHT22;42154;51.992;5.896;2023-01-09T01:06:44;7.90;99.90
56240;DHT22;42154;51.992;5.896;2023-01-09T01:09:28;7.90;99.90
56240;DHT22;42154;51.992;5.896;2023-01-09T01:11:54;7.80;99.90
56240;DHT22;42154;51.992;5.896;2023-01-09T01:14:19;7.70;99.90
56240;DHT22;42154;51.992;5.896;2023-01-09T01:16:45;7.70;99.90
56240;DHT22;42154;51.992;5.896;2023-01-09T01:19:11;7.70;99.90
56240;DHT22;42154;51.992;5.896;2023-01-09T01:21:37;7.60;99.90
56240;DHT22;42154;51.992;5.896;2023-01-09T01:24:03;7.60;99.90
56240;DHT22;42154;51.992;5.896;2023-01-09T01:26:29;7.60;99.90
56240;DHT22;42154;51.992;5.896;2023-01-09T01:28:57;7.50;99.90
56240;DHT22;42154;51.992;5.896;2023-01-09T01:31:23;7.60;99.90
56240;DHT22;42154;51.992;5.896;2023-01-09T01:33:49;7.50;99.90
56240;DHT22;42154;51.992;5.896;2023-01-09T01:36:14;7.50;99.90
56240;DHT22;42154;51.992;5.896;2023-01-09T01:38:42;7.50;99.90
56240;DHT22;42154;51.992;5.896;2023-01-09T01:41:08;7.50;99.90
56240;DHT22;42154;51.992;5.896;2023-01-09T01:43:51;7.50;99.90
56240;DHT22;42154;51.992;5.896;2023-01-09T01:46:18;7.60;99.90
56240;DHT22;42154;51.992;5.896;2023-01-09T01:48:44;7.60;99.90
56240;DHT22;42154;51.992;5.896;2023-01-09T01:51:11;7.60;99.90
56240;DHT22;42154;51.992;5.896;2023-01-09T01:53:59;7.60;99.90
56240;DHT22;42154;51.992;5.896;2023-01-09T01:56:29;7.60;99.90
56240;DHT22;42154;51.992;5.896;2023-01-09T01:59:02;7.50;99.90
56240;DHT22;42154;51.992;5.896;2023-01-09T02:01:30;7.50;99.90
56240;DHT22;42154;51.992;5.896;2023-01-09T02:03:58;7.40;99.90
56240;DHT22;42154;51.992;5.896;2023-01-09T02:06:25;7.40;99.90
56240;DHT22;42154;51.992;5.896;2023-01-09T02:08:51;7.40;99.90
56240;DHT22;42154;51.992;5.896;2023-01-09T02:11:18;7.30;99.90
56240;DHT22;42154;51.992;5.896;2023-01-09T02:13:45;7.30;99.90
56240;DHT22;42154;51.992;5.896;2023-01-09T02:16:31;7.20;99.90
56240;DHT22;42154;51.992;5.896;2023-01-09T02:30:38;6.90;99.90
56240;DHT22;42154;51.992;5.896;2023-01-09T02:35:47;6.90;99.90
56240;DHT22;42154;51.992;5.896;2023-01-09T02:38:26;6.90;99.90
56240;DHT22;42154;51.992;5.896;2023-01-09T02:41:44;6.90;99.90
56240;DHT22;42154;51.992;5.896;2023-01-09T02:44:14;7.00;99.90
56240;DHT22;42154;51.992;5.896;2023-01-09T02:46:40;7.10;99.90
56240;DHT22;42154;51.992;5.896;2023-01-09T02:49:06;7.10;99.90
56240;DHT22;42154;51.992;5.896;2023-01-09T02:51:52;7.10;99.90
56240;DHT22;42154;51.992;5.896;2023-01-09T02:57:57;7.20;99.90
56240;DHT22;42154;51.992;5.896;2023-01-09T03:06:29;7.20;99.90
56240;DHT22;42154;51.992;5.896;2023-01-09T03:09:04;7.10;99.90
56240;DHT22;42154;51.992;5.896;2023-01-09T03:11:37;7.10;99.90
56240;DHT22;42154;51.992;5.896;2023-01-09T03:14:08;7.10;99.90
56240;DHT22;42154;51.992;5.896;2023-01-09T03:16:37;7.10;99.90
56240;DHT22;42154;51.992;5.896;2023-01-09T03:19:09;7.10;99.90
56240;DHT22;42154;51.992;5.896;2023-01-09T03:21:36;7.10;99.90
56240;DHT22;42154;51.992;5.896;2023-01-09T03:24:02;7.10;99.90
56240;DHT22;42154;51.992;5.896;2023-01-09T03:26:29;7.10;99.90
56240;DHT22;42154;51.992;5.896;2023-01-09T03:28:56;7.10;99.90
56240;DHT22;42154;51.992;5.896;2023-01-09T03:31:22;7.10;99.90
56240;DHT22;42154;51.992;5.896;2023-01-09T03:33:48;7.10;99.90
56240;DHT22;42154;51.992;5.896;2023-01-09T03:36:17;7.10;99.90
56240;DHT22;42154;51.992;5.896;2023-01-09T03:38:43;7.10;99.90
56240;DHT22;42154;51.992;5.896;2023-01-09T03:41:09;7.10;99.90
56240;DHT22;42154;51.992;5.896;2023-01-09T03:43:35;7.00;99.90
56240;DHT22;42154;51.992;5.896;2023-01-09T03:46:01;7.00;99.90
56240;DHT22;42154;51.992;5.896;2023-01-09T03:48:27;6.90;99.90
56240;DHT22;42154;51.992;5.896;2023-01-09T03:50:54;6.90;99.90
56240;DHT22;42154;51.992;5.896;2023-01-09T03:53:22;6.80;99.90
56240;DHT22;42154;51.992;5.896;2023-01-09T03:55:50;6.70;99.90
56240;DHT22;42154;51.992;5.896;2023-01-09T03:58:17;6.70;99.90
56240;DHT22;42154;51.992;5.896;2023-01-09T04:00:44;6.60;99.90
56240;DHT22;42154;51.992;5.896;2023-01-09T04:03:11;6.60;99.90
56240;DHT22;42154;51.992;5.896;2023-01-09T04:05:37;6.50;99.90
56240;DHT22;42154;51.992;5.896;2023-01-09T04:08:04;6.40;99.90
56240;DHT22;42154;51.992;5.896;2023-01-09T04:10:30;6.40;99.90
56240;DHT22;42154;51.992;5.896;2023-01-09T04:12:55;6.40;99.90
56240;DHT22;42154;51.992;5.896;2023-01-09T04:15:21;6.40;99.90
56240;DHT22;42154;51.992;5.896;2023-01-09T04:17:47;6.40;99.90
56240;DHT22;42154;51.992;5.896;2023-01-09T04:20:13;6.40;99.90
56240;DHT22;42154;51.992;5.896;2023-01-09T04:22:39;6.30;99.90
56240;DHT22;42154;51.992;5.896;2023-01-09T04:25:05;6.30;99.90
56240;DHT22;42154;51.992;5.896;2023-01-09T04:27:31;6.30;99.90
56240;DHT22;42154;51.992;5.896;2023-01-09T04:29:56;6.30;99.90
56240;DHT22;42154;51.992;5.896;2023-01-09T04:32:22;6.20;99.90
56240;DHT22;42154;51.992;5.896;2023-01-09T04:34:48;6.20;99.90
56240;DHT22;42154;51.992;5.896;2023-01-09T04:37:14;6.20;99.90
56240;DHT22;42154;51.992;5.896;2023-01-09T04:39:40;6.10;99.90
56240;DHT22;42154;51.992;5.896;2023-01-09T04:42:09;6.20;99.90
56240;DHT22;42154;51.992;5.896;2023-01-09T04:44:35;6.20;99.90
56240;DHT22;42154;51.992;5.896;2023-01-09T04:47:01;6.20;99.90
56240;DHT22;42154;51.992;5.896;2023-01-09T04:49:27;6.30;99.90
56240;DHT22;42154;51.992;5.896;2023-01-09T04:51:53;6.30;99.90
56240;DHT22;42154;51.992;5.896;2023-01-09T04:54:19;6.30;99.90
56240;DHT22;42154;51.992;5.896;2023-01-09T04:56:45;6.30;99.90
56240;DHT22;42154;51.992;5.896;2023-01-09T04:59:11;6.40;99.90
56240;DHT22;42154;51.992;5.896;2023-01-09T05:01:37;6.40;99.90
56240;DHT22;42154;51.992;5.896;2023-01-09T05:04:03;6.50;99.90
56240;DHT22;42154;51.992;5.896;2023-01-09T05:06:29;6.50;99.90
56240;DHT22;42154;51.992;5.896;2023-01-09T05:08:56;6.50;99.90
56240;DHT22;42154;51.992;5.896;2023-01-09T05:11:22;6.50;99.90
56240;DHT22;42154;51.992;5.896;2023-01-09T05:13:48;6.60;99.90
56240;DHT22;42154;51.992;5.896;2023-01-09T05:16:13;6.60;99.90
56240;DHT22;42154;51.992;5.896;2023-01-09T05:18:39;6.60;99.90
56240;DHT22;42154;51.992;5.896;2023-01-09T05:21:05;6.60;99.90
56240;DHT22;42154;51.992;5.896;2023-01-09T05:23:31;6.70;99.90
56240;DHT22;42154;51.992;5.896;2023-01-09T05:25:56;6.70;99.90
56240;DHT22;42154;51.992;5.896;2023-01-09T05:28:22;6.70;99.90
56240;DHT22;42154;51.992;5.896;2023-01-09T05:30:48;6.70;99.90
56240;DHT22;42154;51.992;5.896;2023-01-09T05:33:14;6.80;99.90
56240;DHT22;42154;51.992;5.896;2023-01-09T05:35:40;6.80;99.90
56240;DHT22;42154;51.992;5.896;2023-01-09T05:38:06;6.80;99.90
56240;DHT22;42154;51.992;5.896;2023-01-09T05:40:31;6.80;99.90
56240;DHT22;42154;51.992;5.896;2023-01-09T05:42:57;6.80;99.90
56240;DHT22;42154;51.992;5.896;2023-01-09T05:45:23;6.80;99.90
56240;DHT22;42154;51.992;5.896;2023-01-09T05:47:48;6.80;99.90
56240;DHT22;42154;51.992;5.896;2023-01-09T05:50:14;6.80;99.90
56240;DHT22;42154;51.992;5.896;2023-01-09T05:52:40;6.80;99.90
56240;DHT22;42154;51.992;5.896;2023-01-09T05:55:06;6.80;99.90
56240;DHT22;42154;51.992;5.896;2023-01-09T05:57:32;6.80;99.90
56240;DHT22;42154;51.992;5.896;2023-01-09T05:59:58;6.80;99.90
56240;DHT22;42154;51.992;5.896;2023-01-09T06:02:24;6.80;99.90
56240;DHT22;42154;51.992;5.896;2023-01-09T06:04:50;6.80;99.90
56240;DHT22;42154;51.992;5.896;2023-01-09T06:07:15;6.80;99.90
56240;DHT22;42154;51.992;5.896;2023-01-09T06:09:41;6.80;99.90
56240;DHT22;42154;51.992;5.896;2023-01-09T06:12:07;6.80;99.90
56240;DHT22;42154;51.992;5.896;2023-01-09T06:14:33;6.80;99.90
56240;DHT22;42154;51.992;5.896;2023-01-09T06:16:58;6.90;99.90
56240;DHT22;42154;51.992;5.896;2023-01-09T06:19:24;6.80;99.90
56240;DHT22;42154;51.992;5.896;2023-01-09T06:21:50;6.90;99.90
56240;DHT22;42154;51.992;5.896;2023-01-09T06:24:18;6.90;99.90
56240;DHT22;42154;51.992;5.896;2023-01-09T06:26:43;6.90;99.90
56240;DHT22;42154;51.992;5.896;2023-01-09T06:29:09;6.90;99.90
56240;DHT22;42154;51.992;5.896;2023-01-09T06:31:35;7.00;99.90
56240;DHT22;42154;51.992;5.896;2023-01-09T06:34:01;7.00;99.90
56240;DHT22;42154;51.992;5.896;2023-01-09T06:36:26;7.00;99.90
56240;DHT22;42154;51.992;5.896;2023-01-09T06:38:52;7.10;99.90
56240;DHT22;42154;51.992;5.896;2023-01-09T06:41:18;7.00;99.90
56240;DHT22;42154;51.992;5.896;2023-01-09T06:43:44;7.10;99.90
56240;DHT22;42154;51.992;5.896;2023-01-09T06:46:09;7.10;99.90
56240;DHT22;42154;51.992;5.896;2023-01-09T06:48:35;7.10;99.90
56240;DHT22;42154;51.992;5.896;2023-01-09T06:51:01;7.10;99.90
56240;DHT22;42154;51.992;5.896;2023-01-09T06:53:27;7.10;99.90
56240;DHT22;42154;51.992;5.896;2023-01-09T06:55:53;7.20;99.90
56240;DHT22;42154;51.992;5.896;2023-01-09T06:58:19;7.20;99.90
56240;DHT22;42154;51.992;5.896;2023-01-09T07:00:45;7.20;99.90
56240;DHT22;42154;51.992;5.896;2023-01-09T07:03:11;7.20;99.90
56240;DHT22;42154;51.992;5.896;2023-01-09T07:05:44;7.30;99.90
56240;DHT22;42154;51.992;5.896;2023-01-09T07:08:10;7.30;99.90
56240;DHT22;42154;51.992;5.896;2023-01-09T07:10:36;7.40;99.90
56240;DHT22;42154;51.992;5.896;2023-01-09T07:13:02;7.40;99.90
56240;DHT22;42154;51.992;5.896;2023-01-09T07:15:28;7.50;99.90
56240;DHT22;42154;51.992;5.896;2023-01-09T07:17:54;7.50;99.90
56240;DHT22;42154;51.992;5.896;2023-01-09T07:20:20;7.60;99.90
56240;DHT22;42154;51.992;5.896;2023-01-09T07:22:46;7.50;99.90
56240;DHT22;42154;51.992;5.896;2023-01-09T07:25:12;7.60;99.90
56240;DHT22;42154;51.992;5.896;2023-01-09T07:27:38;7.60;99.90
56240;DHT22;42154;51.992;5.896;2023-01-09T07:30:05;7.50;99.90
56240;DHT22;42154;51.992;5.896;2023-01-09T07:32:32;7.60;99.90
56240;DHT22;42154;51.992;5.896;2023-01-09T07:34:58;7.50;99.90
56240;DHT22;42154;51.992;5.896;2023-01-09T07:37:24;7.50;99.90
56240;DHT22;42154;51.992;5.896;2023-01-09T07:39:50;7.50;99.90
56240;DHT22;42154;51.992;5.896;2023-01-09T07:42:16;7.50;99.90
56240;DHT22;42154;51.992;5.896;2023-01-09T07:44:42;7.50;99.90
56240;DHT22;42154;51.992;5.896;2023-01-09T07:47:07;7.50;99.90
56240;DHT22;42154;51.992;5.896;2023-01-09T07:49:33;7.50;99.90
56240;DHT22;42154;51.992;5.896;2023-01-09T07:51:59;7.50;99.90
56240;DHT22;42154;51.992;5.896;2023-01-09T07:54:25;7.50;99.90
56240;DHT22;42154;51.992;5.896;2023-01-09T07:56:51;7.50;99.90
56240;DHT22;42154;51.992;5.896;2023-01-09T07:59:18;7.40;99.90
56240;DHT22;42154;51.992;5.896;2023-01-09T08:01:44;7.50;99.90
56240;DHT22;42154;51.992;5.896;2023-01-09T08:04:09;7.40;99.90
56240;DHT22;42154;51.992;5.896;2023-01-09T08:06:35;7.50;99.90
56240;DHT22;42154;51.992;5.896;2023-01-09T08:09:01;7.50;99.90
56240;DHT22;42154;51.992;5.896;2023-01-09T08:11:27;7.40;99.90
56240;DHT22;42154;51.992;5.896;2023-01-09T08:13:52;7.40;99.90
56240;DHT22;42154;51.992;5.896;2023-01-09T08:16:18;7.40;99.90
56240;DHT22;42154;51.992;5.896;2023-01-09T08:18:44;7.40;99.90
56240;DHT22;42154;51.992;5.896;2023-01-09T08:21:10;7.40;99.90
56240;DHT22;42154;51.992;5.896;2023-01-09T08:23:36;7.40;99.90
56240;DHT22;42154;51.992;5.896;2023-01-09T08:26:03;7.40;99.90
56240;DHT22;42154;51.992;5.896;2023-01-09T08:28:29;7.40;99.90
56240;DHT22;42154;51.992;5.896;2023-01-09T08:30:55;7.40;99.90
56240;DHT22;42154;51.992;5.896;2023-01-09T08:33:21;7.50;99.90
56240;DHT22;42154;51.992;5.896;2023-01-09T08:35:47;7.50;99.90
56240;DHT22;42154;51.992;5.896;2023-01-09T08:38:12;7.50;99.90
56240;DHT22;42154;51.992;5.896;2023-01-09T08:40:38;7.40;99.90
56240;DHT22;42154;51.992;5.896;2023-01-09T08:43:04;7.50;99.90
56240;DHT22;42154;51.992;5.896;2023-01-09T08:45:48;7.50;99.90
56240;DHT22;42154;51.992;5.896;2023-01-09T08:48:32;7.50;99.90
56240;DHT22;42154;51.992;5.896;2023-01-09T08:50:58;7.50;99.90
56240;DHT22;42154;51.992;5.896;2023-01-09T08:53:24;7.50;99.90
56240;DHT22;42154;51.992;5.896;2023-01-09T08:55:50;7.50;99.90
56240;DHT22;42154;51.992;5.896;2023-01-09T08:58:15;7.50;99.90
56240;DHT22;42154;51.992;5.896;2023-01-09T09:00:41;7.60;99.90
56240;DHT22;42154;51.992;5.896;2023-01-09T09:03:08;7.60;99.90
56240;DHT22;42154;51.992;5.896;2023-01-09T09:05:35;7.60;99.90
56240;DHT22;42154;51.992;5.896;2023-01-09T09:08:01;7.60;99.90
56240;DHT22;42154;51.992;5.896;2023-01-09T09:10:28;7.60;99.90
56240;DHT22;42154;51.992;5.896;2023-01-09T09:12:56;7.60;99.90
56240;DHT22;42154;51.992;5.896;2023-01-09T09:15:23;7.60;99.90
56240;DHT22;42154;51.992;5.896;2023-01-09T09:17:57;7.60;99.90
56240;DHT22;42154;51.992;5.896;2023-01-09T09:20:29;7.60;99.90
56240;DHT22;42154;51.992;5.896;2023-01-09T09:22:55;7.70;99.90
56240;DHT22;42154;51.992;5.896;2023-01-09T09:25:21;7.70;99.90
56240;DHT22;42154;51.992;5.896;2023-01-09T09:27:47;7.70;99.90
56240;DHT22;42154;51.992;5.896;2023-01-09T09:30:16;7.70;99.90
56240;DHT22;42154;51.992;5.896;2023-01-09T09:32:43;7.80;99.90
56240;DHT22;42154;51.992;5.896;2023-01-09T09:35:09;7.80;99.90
56240;DHT22;42154;51.992;5.896;2023-01-09T09:37:35;7.80;99.90
56240;DHT22;42154;51.992;5.896;2023-01-09T09:40:01;7.90;99.90
56240;DHT22;42154;51.992;5.896;2023-01-09T09:45:38;8.00;99.90
56240;DHT22;42154;51.992;5.896;2023-01-09T09:48:21;8.00;99.90
56240;DHT22;42154;51.992;5.896;2023-01-09T09:56:33;8.00;99.90
56240;DHT22;42154;51.992;5.896;2023-01-09T09:59:04;8.00;99.90
56240;DHT22;42154;51.992;5.896;2023-01-09T10:04:17;8.00;99.90
56240;DHT22;42154;51.992;5.896;2023-01-09T10:07:04;8.00;99.90
56240;DHT22;42154;51.992;5.896;2023-01-09T10:09:53;8.00;99.90
56240;DHT22;42154;51.992;5.896;2023-01-09T10:14:56;8.10;99.90
56240;DHT22;42154;51.992;5.896;2023-01-09T10:25:50;8.40;99.90
56240;DHT22;42154;51.992;5.896;2023-01-09T10:39:40;8.70;99.90
56240;DHT22;42154;51.992;5.896;2023-01-09T10:42:25;8.80;99.90
56240;DHT22;42154;51.992;5.896;2023-01-09T10:45:15;8.80;99.90
56240;DHT22;42154;51.992;5.896;2023-01-09T10:47:44;8.90;99.90
56240;DHT22;42154;51.992;5.896;2023-01-09T10:50:21;8.90;99.90
56240;DHT22;42154;51.992;5.896;2023-01-09T10:52:53;8.90;99.90
56240;DHT22;42154;51.992;5.896;2023-01-09T10:55:38;8.90;99.90
56240;DHT22;42154;51.992;5.896;2023-01-09T10:58:31;8.90;99.90
56240;DHT22;42154;51.992;5.896;2023-01-09T11:00:57;8.80;99.90
56240;DHT22;42154;51.992;5.896;2023-01-09T11:03:26;8.70;99.90
56240;DHT22;42154;51.992;5.896;2023-01-09T11:05:56;8.70;99.90
56240;DHT22;42154;51.992;5.896;2023-01-09T11:10:52;8.70;99.90
56240;DHT22;42154;51.992;5.896;2023-01-09T11:13:19;8.70;99.90
56240;DHT22;42154;51.992;5.896;2023-01-09T11:15:45;8.80;99.90
56240;DHT22;42154;51.992;5.896;2023-01-09T11:18:20;8.90;99.90
56240;DHT22;42154;51.992;5.896;2023-01-09T11:20:47;9.00;99.90
56240;DHT22;42154;51.992;5.896;2023-01-09T11:23:25;9.10;99.90
56240;DHT22;42154;51.992;5.896;2023-01-09T11:25:53;9.20;99.90
56240;DHT22;42154;51.992;5.896;2023-01-09T11:28:19;9.20;99.90
56240;DHT22;42154;51.992;5.896;2023-01-09T11:30:53;9.30;99.90
56240;DHT22;42154;51.992;5.896;2023-01-09T11:33:23;9.30;99.90
56240;DHT22;42154;51.992;5.896;2023-01-09T11:36:05;9.20;99.90
56240;DHT22;42154;51.992;5.896;2023-01-09T11:38:49;9.10;99.90
56240;DHT22;42154;51.992;5.896;2023-01-09T11:41:24;9.10;99.90
56240;DHT22;42154;51.992;5.896;2023-01-09T11:43:53;9.00;99.90
56240;DHT22;42154;51.992;5.896;2023-01-09T11:46:38;8.90;99.90
56240;DHT22;42154;51.992;5.896;2023-01-09T11:51:40;9.00;99.90
56240;DHT22;42154;51.992;5.896;2023-01-09T11:54:16;9.00;99.90
56240;DHT22;42154;51.992;5.896;2023-01-09T11:56:44;9.00;99.90
56240;DHT22;42154;51.992;5.896;2023-01-09T11:59:15;9.00;99.90
56240;DHT22;42154;51.992;5.896;2023-01-09T12:04:36;9.30;99.90
56240;DHT22;42154;51.992;5.896;2023-01-09T12:16:30;9.40;99.90
56240;DHT22;42154;51.992;5.896;2023-01-09T12:19:09;9.30;99.90
56240;DHT22;42154;51.992;5.896;2023-01-09T12:21:44;9.30;99.90
56240;DHT22;42154;51.992;5.896;2023-01-09T12:53:43;9.50;99.90
56240;DHT22;42154;51.992;5.896;2023-01-09T12:56:17;9.50;99.90
56240;DHT22;42154;51.992;5.896;2023-01-09T12:58:52;9.60;99.90
56240;DHT22;42154;51.992;5.896;2023-01-09T13:01:28;9.60;99.90
56240;DHT22;42154;51.992;5.896;2023-01-09T13:04:18;9.60;99.90
56240;DHT22;42154;51.992;5.896;2023-01-09T13:06:52;9.60;99.90
56240;DHT22;42154;51.992;5.896;2023-01-09T13:09:33;9.50;99.90
56240;DHT22;42154;51.992;5.896;2023-01-09T13:12:19;9.50;99.90
56240;DHT22;42154;51.992;5.896;2023-01-09T13:14:59;9.50;99.90
56240;DHT22;42154;51.992;5.896;2023-01-09T13:17:37;9.60;99.90
56240;DHT22;42154;51.992;5.896;2023-01-09T13:20:32;9.60;99.90
56240;DHT22;42154;51.992;5.896;2023-01-09T13:23:02;9.70;99.90
56240;DHT22;42154;51.992;5.896;2023-01-09T13:25:37;9.70;99.90
56240;DHT22;42154;51.992;5.896;2023-01-09T13:28:26;9.80;99.90
56240;DHT22;42154;51.992;5.896;2023-01-09T13:33:53;9.80;99.90
56240;DHT22;42154;51.992;5.896;2023-01-09T13:36:24;9.80;99.90
56240;DHT22;42154;51.992;5.896;2023-01-09T13:38:53;9.90;99.90
56240;DHT22;42154;51.992;5.896;2023-01-09T13:41:19;9.90;99.90
56240;DHT22;42154;51.992;5.896;2023-01-09T13:44:18;9.90;99.90
56240;DHT22;42154;51.992;5.896;2023-01-09T13:46:50;9.80;99.90
56240;DHT22;42154;51.992;5.896;2023-01-09T13:57:29;9.60;99.90
56240;DHT22;42154;51.992;5.896;2023-01-09T14:07:51;9.50;99.90
56240;DHT22;42154;51.992;5.896;2023-01-09T14:10:29;9.40;99.90
56240;DHT22;42154;51.992;5.896;2023-01-09T14:12:56;9.40;99.90
56240;DHT22;42154;51.992;5.896;2023-01-09T14:15:43;9.40;99.90
56240;DHT22;42154;51.992;5.896;2023-01-09T14:18:24;9.40;99.90
56240;DHT22;42154;51.992;5.896;2023-01-09T14:20:57;9.30;99.90
56240;DHT22;42154;51.992;5.896;2023-01-09T14:23:29;9.20;99.90
56240;DHT22;42154;51.992;5.896;2023-01-09T14:25:56;9.30;99.90
56240;DHT22;42154;51.992;5.896;2023-01-09T14:28:26;9.30;99.90
56240;DHT22;42154;51.992;5.896;2023-01-09T14:35:53;9.20;99.90
56240;DHT22;42154;51.992;5.896;2023-01-09T14:38:50;9.20;99.90
56240;DHT22;42154;51.992;5.896;2023-01-09T14:41:36;9.20;99.90
56240;DHT22;42154;51.992;5.896;2023-01-09T14:44:47;9.20;99.90
56240;DHT22;42154;51.992;5.896;2023-01-09T14:50:20;9.20;99.90
56240;DHT22;42154;51.992;5.896;2023-01-09T14:52:49;9.20;99.90
56240;DHT22;42154;51.992;5.896;2023-01-09T14:58:30;9.20;99.90
56240;DHT22;42154;51.992;5.896;2023-01-09T15:01:17;9.20;99.90
56240;DHT22;42154;51.992;5.896;2023-01-09T15:03:57;9.20;99.90
56240;DHT22;42154;51.992;5.896;2023-01-09T15:06:34;9.20;99.90
56240;DHT22;42154;51.992;5.896;2023-01-09T15:11:29;9.10;99.90
56240;DHT22;42154;51.992;5.896;2023-01-09T15:13:56;9.10;99.90
56240;DHT22;42154;51.992;5.896;2023-01-09T15:16:25;9.10;99.90
56240;DHT22;42154;51.992;5.896;2023-01-09T15:19:01;9.10;99.90
56240;DHT22;42154;51.992;5.896;2023-01-09T15:21:29;9.00;99.90
56240;DHT22;42154;51.992;5.896;2023-01-09T15:24:20;9.00;99.90
56240;DHT22;42154;51.992;5.896;2023-01-09T15:26:54;9.00;99.90
56240;DHT22;42154;51.992;5.896;2023-01-09T15:29:20;8.90;99.90
56240;DHT22;42154;51.992;5.896;2023-01-09T15:31:52;8.90;99.90
56240;DHT22;42154;51.992;5.896;2023-01-09T15:34:23;8.80;99.90
56240;DHT22;42154;51.992;5.896;2023-01-09T15:36:50;8.80;99.90
56240;DHT22;42154;51.992;5.896;2023-01-09T15:39:26;8.70;99.90
56240;DHT22;42154;51.992;5.896;2023-01-09T15:41:54;8.70;99.90
56240;DHT22;42154;51.992;5.896;2023-01-09T15:44:41;8.70;99.90
56240;DHT22;42154;51.992;5.896;2023-01-09T15:47:14;8.60;99.90
56240;DHT22;42154;51.992;5.896;2023-01-09T15:49:41;8.50;99.90
56240;DHT22;42154;51.992;5.896;2023-01-09T15:52:10;8.40;99.90
56240;DHT22;42154;51.992;5.896;2023-01-09T15:54:38;8.40;99.90
56240;DHT22;42154;51.992;5.896;2023-01-09T15:59:49;8.20;99.90
56240;DHT22;42154;51.992;5.896;2023-01-09T16:02:15;8.30;99.90
56240;DHT22;42154;51.992;5.896;2023-01-09T16:05:06;8.30;99.90
56240;DHT22;42154;51.992;5.896;2023-01-09T16:07:33;8.30;99.90
56240;DHT22;42154;51.992;5.896;2023-01-09T16:09:59;8.20;99.90
56240;DHT22;42154;51.992;5.896;2023-01-09T16:12:27;8.20;99.90
56240;DHT22;42154;51.992;5.896;2023-01-09T16:14:58;8.10;99.90
56240;DHT22;42154;51.992;5.896;2023-01-09T16:17:25;8.10;99.90
56240;DHT22;42154;51.992;5.896;2023-01-09T16:19:56;8.00;99.90
56240;DHT22;42154;51.992;5.896;2023-01-09T16:22:25;8.00;99.90
56240;DHT22;42154;51.992;5.896;2023-01-09T16:24:52;7.90;99.90
56240;DHT22;42154;51.992;5.896;2023-01-09T16:29:58;7.90;99.90
56240;DHT22;42154;51.992;5.896;2023-01-09T16:32:33;7.90;99.90
56240;DHT22;42154;51.992;5.896;2023-01-09T16:35:02;7.90;99.90
56240;DHT22;42154;51.992;5.896;2023-01-09T16:37:29;7.90;99.90
56240;DHT22;42154;51.992;5.896;2023-01-09T16:45:40;7.70;99.90
56240;DHT22;42154;51.992;5.896;2023-01-09T16:48:19;7.70;99.90
56240;DHT22;42154;51.992;5.896;2023-01-09T16:50:45;7.70;99.90
56240;DHT22;42154;51.992;5.896;2023-01-09T16:53:17;7.60;99.90
56240;DHT22;42154;51.992;5.896;2023-01-09T16:55:44;7.60;99.90
56240;DHT22;42154;51.992;5.896;2023-01-09T16:58:27;7.50;99.90
56240;DHT22;42154;51.992;5.896;2023-01-09T17:00:55;7.50;99.90
56240;DHT22;42154;51.992;5.896;2023-01-09T17:03:21;7.50;99.90
56240;DHT22;42154;51.992;5.896;2023-01-09T17:05:49;7.50;99.90
56240;DHT22;42154;51.992;5.896;2023-01-09T17:08:26;7.40;99.90
56240;DHT22;42154;51.992;5.896;2023-01-09T17:10:54;7.40;99.90
56240;DHT22;42154;51.992;5.896;2023-01-09T17:13:20;7.40;99.90
56240;DHT22;42154;51.992;5.896;2023-01-09T17:15:47;7.40;99.90
56240;DHT22;42154;51.992;5.896;2023-01-09T17:18:18;7.30;99.90
56240;DHT22;42154;51.992;5.896;2023-01-09T17:20:49;7.40;99.90
56240;DHT22;42154;51.992;5.896;2023-01-09T17:23:16;7.30;99.90
56240;DHT22;42154;51.992;5.896;2023-01-09T17:25:42;7.30;99.90
56240;DHT22;42154;51.992;5.896;2023-01-09T17:28:26;7.20;99.90
56240;DHT22;42154;51.992;5.896;2023-01-09T17:31:09;7.20;99.90
56240;DHT22;42154;51.992;5.896;2023-01-09T17:33:37;7.40;99.90
56240;DHT22;42154;51.992;5.896;2023-01-09T17:36:16;7.40;99.90
56240;DHT22;42154;51.992;5.896;2023-01-09T17:38:42;7.50;99.90
56240;DHT22;42154;51.992;5.896;2023-01-09T17:41:12;7.50;99.90
56240;DHT22;42154;51.992;5.896;2023-01-09T17:43:38;7.60;99.90
56240;DHT22;42154;51.992;5.896;2023-01-09T17:46:04;7.60;99.90
56240;DHT22;42154;51.992;5.896;2023-01-09T17:48:29;7.60;99.90
56240;DHT22;42154;51.992;5.896;2023-01-09T17:50:55;7.70;99.90
56240;DHT22;42154;51.992;5.896;2023-01-09T17:53:21;7.70;99.90
56240;DHT22;42154;51.992;5.896;2023-01-09T17:55:49;7.80;99.90
56240;DHT22;42154;51.992;5.896;2023-01-09T17:58:26;7.80;99.90
56240;DHT22;42154;51.992;5.896;2023-01-09T18:00:57;7.90;99.90
56240;DHT22;42154;51.992;5.896;2023-01-09T18:03:23;7.80;99.90
56240;DHT22;42154;51.992;5.896;2023-01-09T18:05:55;7.80;99.90
56240;DHT22;42154;51.992;5.896;2023-01-09T18:08:21;7.90;99.90
56240;DHT22;42154;51.992;5.896;2023-01-09T18:10:47;7.90;99.90
56240;DHT22;42154;51.992;5.896;2023-01-09T18:13:14;7.90;99.90
56240;DHT22;42154;51.992;5.896;2023-01-09T18:15:41;7.80;99.90
56240;DHT22;42154;51.992;5.896;2023-01-09T18:18:08;7.80;99.90
56240;DHT22;42154;51.992;5.896;2023-01-09T18:20:40;7.80;99.90
56240;DHT22;42154;51.992;5.896;2023-01-09T18:23:07;7.70;99.90
56240;DHT22;42154;51.992;5.896;2023-01-09T18:25:33;7.70;99.90
56240;DHT22;42154;51.992;5.896;2023-01-09T18:27:59;7.70;99.90